sensor_id;sensor_type;location;lat;lon;timestamp;P1;durP1;ratioP1;P2;durP2;ratioP2
68507;SDS011;55510;49.560;19.090;2022-09-13T00:03:30;7.80;;;3.70;;
68507;SDS011;55510;49.560;19.090;2022-09-13T00:08:32;7.63;;;3.80;;
68507;SDS011;55510;49.560;19.090;2022-09-13T00:13:32;9.20;;;4.57;;
68507;SDS011;55510;49.560;19.090;2022-09-13T00:18:33;8.80;;;4.07;;
68507;SDS011;55510;49.560;19.090;2022-09-13T00:23:34;8.33;;;4.33;;
68507;SDS011;55510;49.560;19.090;2022-09-13T00:28:36;7.70;;;3.85;;
68507;SDS011;55510;49.560;19.090;2022-09-13T00:33:37;6.43;;;3.00;;
68507;SDS011;55510;49.560;19.090;2022-09-13T00:38:38;7.00;;;3.20;;
68507;SDS011;55510;49.560;19.090;2022-09-13T00:48:45;8.77;;;3.77;;
68507;SDS011;55510;49.560;19.090;2022-09-13T00:53:48;8.05;;;4.28;;
68507;SDS011;55510;49.560;19.090;2022-09-13T00:58:55;8.75;;;4.25;;
68507;SDS011;55510;49.560;19.090;2022-09-13T01:04:01;8.00;;;3.93;;
68507;SDS011;55510;49.560;19.090;2022-09-13T01:09:03;7.35;;;3.63;;
68507;SDS011;55510;49.560;19.090;2022-09-13T01:14:06;8.20;;;3.60;;
68507;SDS011;55510;49.560;19.090;2022-09-13T01:19:08;7.70;;;4.17;;
68507;SDS011;55510;49.560;19.090;2022-09-13T01:45:55;9.10;;;3.57;;
68507;SDS011;55510;49.560;19.090;2022-09-13T02:01:28;7.82;;;3.75;;
68507;SDS011;55510;49.560;19.090;2022-09-13T02:06:33;7.63;;;3.63;;
68507;SDS011;55510;49.560;19.090;2022-09-13T02:11:39;9.33;;;4.23;;
68507;SDS011;55510;49.560;19.090;2022-09-13T02:16:46;7.70;;;3.42;;
68507;SDS011;55510;49.560;19.090;2022-09-13T02:21:53;7.20;;;3.30;;
68507;SDS011;55510;49.560;19.090;2022-09-13T02:26:58;7.90;;;3.43;;
68507;SDS011;55510;49.560;19.090;2022-09-13T02:37:11;8.00;;;3.87;;
68507;SDS011;55510;49.560;19.090;2022-09-13T02:42:25;5.90;;;3.20;;
68507;SDS011;55510;49.560;19.090;2022-09-13T02:58:20;7.93;;;3.97;;
68507;SDS011;55510;49.560;19.090;2022-09-13T03:03:30;8.07;;;3.05;;
68507;SDS011;55510;49.560;19.090;2022-09-13T03:08:31;8.27;;;3.33;;
68507;SDS011;55510;49.560;19.090;2022-09-13T03:29:11;6.87;;;3.10;;
68507;SDS011;55510;49.560;19.090;2022-09-13T03:44:26;9.60;;;4.60;;
68507;SDS011;55510;49.560;19.090;2022-09-13T03:49:30;8.70;;;4.40;;
68507;SDS011;55510;49.560;19.090;2022-09-13T03:54:33;7.47;;;3.70;;
68507;SDS011;55510;49.560;19.090;2022-09-13T03:59:37;6.70;;;2.78;;
68507;SDS011;55510;49.560;19.090;2022-09-13T04:04:41;7.88;;;3.20;;
68507;SDS011;55510;49.560;19.090;2022-09-13T04:09:43;7.20;;;3.00;;
68507;SDS011;55510;49.560;19.090;2022-09-13T04:14:45;6.03;;;2.72;;
68507;SDS011;55510;49.560;19.090;2022-09-13T04:19:46;6.93;;;2.60;;
68507;SDS011;55510;49.560;19.090;2022-09-13T04:24:46;5.53;;;2.67;;
68507;SDS011;55510;49.560;19.090;2022-09-13T04:29:47;6.17;;;2.73;;
68507;SDS011;55510;49.560;19.090;2022-09-13T04:34:48;7.13;;;2.85;;
68507;SDS011;55510;49.560;19.090;2022-09-13T04:39:49;6.47;;;2.73;;
68507;SDS011;55510;49.560;19.090;2022-09-13T04:44:49;7.67;;;3.20;;
68507;SDS011;55510;49.560;19.090;2022-09-13T04:49:50;5.72;;;2.50;;
68507;SDS011;55510;49.560;19.090;2022-09-13T04:54:50;8.93;;;3.87;;
68507;SDS011;55510;49.560;19.090;2022-09-13T04:59:51;7.67;;;3.40;;
68507;SDS011;55510;49.560;19.090;2022-09-13T05:04:52;12.25;;;3.97;;
68507;SDS011;55510;49.560;19.090;2022-09-13T05:09:53;8.43;;;3.50;;
68507;SDS011;55510;49.560;19.090;2022-09-13T05:14:53;9.27;;;4.30;;
68507;SDS011;55510;49.560;19.090;2022-09-13T05:19:54;7.93;;;3.40;;
68507;SDS011;55510;49.560;19.090;2022-09-13T05:24:54;10.73;;;3.65;;
68507;SDS011;55510;49.560;19.090;2022-09-13T05:29:56;10.60;;;3.90;;
68507;SDS011;55510;49.560;19.090;2022-09-13T05:34:56;8.82;;;4.18;;
68507;SDS011;55510;49.560;19.090;2022-09-13T05:39:59;11.70;;;4.30;;
68507;SDS011;55510;49.560;19.090;2022-09-13T05:44:59;11.48;;;3.75;;
68507;SDS011;55510;49.560;19.090;2022-09-13T05:50:01;8.90;;;3.57;;
68507;SDS011;55510;49.560;19.090;2022-09-13T05:55:01;8.88;;;4.13;;
68507;SDS011;55510;49.560;19.090;2022-09-13T06:00:02;7.73;;;3.67;;
68507;SDS011;55510;49.560;19.090;2022-09-13T06:05:07;9.93;;;5.18;;
68507;SDS011;55510;49.560;19.090;2022-09-13T06:10:10;8.57;;;4.73;;
68507;SDS011;55510;49.560;19.090;2022-09-13T06:15:11;10.97;;;3.87;;
68507;SDS011;55510;49.560;19.090;2022-09-13T06:20:12;10.30;;;4.80;;
68507;SDS011;55510;49.560;19.090;2022-09-13T06:25:13;9.33;;;3.93;;
68507;SDS011;55510;49.560;19.090;2022-09-13T06:30:15;12.43;;;3.97;;
68507;SDS011;55510;49.560;19.090;2022-09-13T06:35:16;10.67;;;4.40;;
68507;SDS011;55510;49.560;19.090;2022-09-13T06:40:17;9.02;;;4.10;;
68507;SDS011;55510;49.560;19.090;2022-09-13T06:45:17;10.63;;;4.73;;
68507;SDS011;55510;49.560;19.090;2022-09-13T06:50:18;7.00;;;3.73;;
68507;SDS011;55510;49.560;19.090;2022-09-13T06:55:19;10.15;;;4.63;;
68507;SDS011;55510;49.560;19.090;2022-09-13T07:00:21;8.60;;;3.50;;
68507;SDS011;55510;49.560;19.090;2022-09-13T07:05:22;8.30;;;4.00;;
68507;SDS011;55510;49.560;19.090;2022-09-13T07:10:23;7.47;;;3.17;;
68507;SDS011;55510;49.560;19.090;2022-09-13T07:15:24;6.83;;;3.60;;
68507;SDS011;55510;49.560;19.090;2022-09-13T07:20:24;6.73;;;2.80;;
68507;SDS011;55510;49.560;19.090;2022-09-13T07:25:25;7.03;;;2.40;;
68507;SDS011;55510;49.560;19.090;2022-09-13T07:30:26;6.10;;;2.53;;
68507;SDS011;55510;49.560;19.090;2022-09-13T07:35:27;5.28;;;2.58;;
68507;SDS011;55510;49.560;19.090;2022-09-13T07:40:28;5.20;;;2.23;;
68507;SDS011;55510;49.560;19.090;2022-09-13T07:45:28;5.57;;;1.63;;
68507;SDS011;55510;49.560;19.090;2022-09-13T07:50:29;5.00;;;1.50;;
68507;SDS011;55510;49.560;19.090;2022-09-13T07:55:30;4.10;;;1.50;;
68507;SDS011;55510;49.560;19.090;2022-09-13T08:00:30;3.80;;;1.90;;
68507;SDS011;55510;49.560;19.090;2022-09-13T08:05:31;3.67;;;1.50;;
68507;SDS011;55510;49.560;19.090;2022-09-13T08:10:32;4.27;;;2.00;;
68507;SDS011;55510;49.560;19.090;2022-09-13T08:15:33;3.77;;;0.97;;
68507;SDS011;55510;49.560;19.090;2022-09-13T08:20:35;2.60;;;0.93;;
68507;SDS011;55510;49.560;19.090;2022-09-13T08:25:37;2.60;;;0.83;;
68507;SDS011;55510;49.560;19.090;2022-09-13T08:30:39;3.20;;;1.27;;
68507;SDS011;55510;49.560;19.090;2022-09-13T08:35:48;3.40;;;1.00;;
68507;SDS011;55510;49.560;19.090;2022-09-13T08:40:53;2.30;;;0.95;;
68507;SDS011;55510;49.560;19.090;2022-09-13T08:46:31;2.27;;;0.53;;
68507;SDS011;55510;49.560;19.090;2022-09-13T09:07:30;2.67;;;1.17;;
68507;SDS011;55510;49.560;19.090;2022-09-13T09:12:38;2.65;;;0.77;;
68507;SDS011;55510;49.560;19.090;2022-09-13T09:23:15;2.07;;;0.60;;
68507;SDS011;55510;49.560;19.090;2022-09-13T09:28:18;4.47;;;1.48;;
68507;SDS011;55510;49.560;19.090;2022-09-13T09:38:34;3.10;;;0.97;;
68507;SDS011;55510;49.560;19.090;2022-09-13T09:49:20;3.28;;;1.40;;
68507;SDS011;55510;49.560;19.090;2022-09-13T09:54:55;2.33;;;0.93;;
68507;SDS011;55510;49.560;19.090;2022-09-13T10:00:09;3.53;;;1.00;;
68507;SDS011;55510;49.560;19.090;2022-09-13T10:05:12;3.75;;;1.05;;
68507;SDS011;55510;49.560;19.090;2022-09-13T10:10:22;2.07;;;0.90;;
68507;SDS011;55510;49.560;19.090;2022-09-13T10:15:28;2.07;;;1.10;;
68507;SDS011;55510;49.560;19.090;2022-09-13T10:20:33;2.53;;;1.08;;
68507;SDS011;55510;49.560;19.090;2022-09-13T10:25:34;2.30;;;1.27;;
68507;SDS011;55510;49.560;19.090;2022-09-13T10:30:40;5.53;;;1.80;;
68507;SDS011;55510;49.560;19.090;2022-09-13T10:35:58;2.58;;;1.30;;
68507;SDS011;55510;49.560;19.090;2022-09-13T10:41:08;5.05;;;2.35;;
68507;SDS011;55510;49.560;19.090;2022-09-13T10:46:21;2.57;;;1.30;;
68507;SDS011;55510;49.560;19.090;2022-09-13T10:56:26;2.25;;;1.00;;
68507;SDS011;55510;49.560;19.090;2022-09-13T11:38:26;3.45;;;2.13;;
68507;SDS011;55510;49.560;19.090;2022-09-13T11:48:45;7.13;;;3.10;;
68507;SDS011;55510;49.560;19.090;2022-09-13T12:04:37;4.73;;;3.37;;
68507;SDS011;55510;49.560;19.090;2022-09-13T12:09:49;4.37;;;2.97;;
68507;SDS011;55510;49.560;19.090;2022-09-13T12:14:59;7.32;;;3.60;;
68507;SDS011;55510;49.560;19.090;2022-09-13T12:20:05;4.05;;;2.70;;
68507;SDS011;55510;49.560;19.090;2022-09-13T12:25:17;5.47;;;2.80;;
68507;SDS011;55510;49.560;19.090;2022-09-13T12:30:21;3.60;;;2.60;;
68507;SDS011;55510;49.560;19.090;2022-09-13T12:35:29;4.35;;;2.83;;
68507;SDS011;55510;49.560;19.090;2022-09-13T12:40:41;5.27;;;3.00;;
68507;SDS011;55510;49.560;19.090;2022-09-13T13:01:49;5.10;;;2.50;;
68507;SDS011;55510;49.560;19.090;2022-09-13T13:06:52;4.60;;;3.03;;
68507;SDS011;55510;49.560;19.090;2022-09-13T13:11:56;5.40;;;3.23;;
68507;SDS011;55510;49.560;19.090;2022-09-13T13:27:42;7.40;;;3.23;;
68507;SDS011;55510;49.560;19.090;2022-09-13T13:33:04;7.68;;;3.47;;
68507;SDS011;55510;49.560;19.090;2022-09-13T13:43:31;5.40;;;2.83;;
68507;SDS011;55510;49.560;19.090;2022-09-13T13:48:37;5.97;;;3.03;;
68507;SDS011;55510;49.560;19.090;2022-09-13T13:53:42;4.97;;;3.05;;
68507;SDS011;55510;49.560;19.090;2022-09-13T14:09:52;4.45;;;2.42;;
68507;SDS011;55510;49.560;19.090;2022-09-13T14:20:35;4.10;;;2.40;;
68507;SDS011;55510;49.560;19.090;2022-09-13T14:25:36;4.20;;;2.88;;
68507;SDS011;55510;49.560;19.090;2022-09-13T14:30:37;6.33;;;2.77;;
68507;SDS011;55510;49.560;19.090;2022-09-13T14:35:39;4.03;;;2.30;;
68507;SDS011;55510;49.560;19.090;2022-09-13T14:40:40;5.85;;;2.90;;
68507;SDS011;55510;49.560;19.090;2022-09-13T14:45:41;4.80;;;2.70;;
68507;SDS011;55510;49.560;19.090;2022-09-13T14:50:57;5.03;;;3.20;;
68507;SDS011;55510;49.560;19.090;2022-09-13T14:56:02;4.18;;;2.30;;
68507;SDS011;55510;49.560;19.090;2022-09-13T15:01:07;5.63;;;2.70;;
68507;SDS011;55510;49.560;19.090;2022-09-13T15:06:21;4.22;;;2.67;;
68507;SDS011;55510;49.560;19.090;2022-09-13T15:11:34;5.72;;;2.33;;
68507;SDS011;55510;49.560;19.090;2022-09-13T15:16:49;5.07;;;2.77;;
68507;SDS011;55510;49.560;19.090;2022-09-13T15:27:42;7.43;;;2.85;;
68507;SDS011;55510;49.560;19.090;2022-09-13T15:32:44;10.20;;;3.08;;
68507;SDS011;55510;49.560;19.090;2022-09-13T15:37:45;6.00;;;3.13;;
68507;SDS011;55510;49.560;19.090;2022-09-13T15:42:46;11.00;;;5.07;;
68507;SDS011;55510;49.560;19.090;2022-09-13T15:47:52;4.55;;;2.42;;
68507;SDS011;55510;49.560;19.090;2022-09-13T15:52:54;5.00;;;2.97;;
68507;SDS011;55510;49.560;19.090;2022-09-13T15:57:55;4.37;;;2.23;;
68507;SDS011;55510;49.560;19.090;2022-09-13T16:02:55;16.00;;;3.33;;
68507;SDS011;55510;49.560;19.090;2022-09-13T16:07:56;11.77;;;3.63;;
68507;SDS011;55510;49.560;19.090;2022-09-13T16:12:58;5.30;;;2.67;;
68507;SDS011;55510;49.560;19.090;2022-09-13T16:17:59;5.73;;;2.90;;
68507;SDS011;55510;49.560;19.090;2022-09-13T16:22:59;5.32;;;2.97;;
68507;SDS011;55510;49.560;19.090;2022-09-13T16:28:00;6.57;;;3.50;;
68507;SDS011;55510;49.560;19.090;2022-09-13T16:33:02;8.77;;;4.57;;
68507;SDS011;55510;49.560;19.090;2022-09-13T16:38:03;13.40;;;5.13;;
68507;SDS011;55510;49.560;19.090;2022-09-13T16:43:03;7.63;;;4.07;;
68507;SDS011;55510;49.560;19.090;2022-09-13T16:48:05;8.77;;;4.57;;
68507;SDS011;55510;49.560;19.090;2022-09-13T16:53:07;7.47;;;4.32;;
68507;SDS011;55510;49.560;19.090;2022-09-13T16:58:08;6.82;;;3.92;;
68507;SDS011;55510;49.560;19.090;2022-09-13T17:03:09;9.53;;;5.37;;
68507;SDS011;55510;49.560;19.090;2022-09-13T17:08:12;10.18;;;5.00;;
68507;SDS011;55510;49.560;19.090;2022-09-13T17:13:13;8.77;;;3.90;;
68507;SDS011;55510;49.560;19.090;2022-09-13T17:18:14;7.67;;;4.13;;
68507;SDS011;55510;49.560;19.090;2022-09-13T17:23:15;8.82;;;4.43;;
68507;SDS011;55510;49.560;19.090;2022-09-13T17:28:17;9.48;;;4.70;;
68507;SDS011;55510;49.560;19.090;2022-09-13T17:33:18;13.83;;;6.80;;
68507;SDS011;55510;49.560;19.090;2022-09-13T17:38:19;20.92;;;8.88;;
68507;SDS011;55510;49.560;19.090;2022-09-13T17:43:19;16.27;;;8.10;;
68507;SDS011;55510;49.560;19.090;2022-09-13T17:48:20;13.25;;;7.32;;
68507;SDS011;55510;49.560;19.090;2022-09-13T17:53:21;10.50;;;6.30;;
68507;SDS011;55510;49.560;19.090;2022-09-13T17:58:24;9.05;;;5.45;;
68507;SDS011;55510;49.560;19.090;2022-09-13T18:03:26;9.32;;;5.32;;
68507;SDS011;55510;49.560;19.090;2022-09-13T18:08:28;8.07;;;4.53;;
68507;SDS011;55510;49.560;19.090;2022-09-13T18:13:32;9.90;;;5.93;;
68507;SDS011;55510;49.560;19.090;2022-09-13T18:18:34;10.15;;;5.22;;
68507;SDS011;55510;49.560;19.090;2022-09-13T18:23:36;10.13;;;5.67;;
68507;SDS011;55510;49.560;19.090;2022-09-13T18:28:37;14.48;;;6.93;;
68507;SDS011;55510;49.560;19.090;2022-09-13T18:33:39;15.15;;;6.78;;
68507;SDS011;55510;49.560;19.090;2022-09-13T18:38:40;14.13;;;6.23;;
68507;SDS011;55510;49.560;19.090;2022-09-13T18:43:47;29.30;;;14.73;;
68507;SDS011;55510;49.560;19.090;2022-09-13T18:48:51;32.08;;;16.25;;
68507;SDS011;55510;49.560;19.090;2022-09-13T18:53:53;39.13;;;19.58;;
68507;SDS011;55510;49.560;19.090;2022-09-13T18:58:55;34.23;;;17.17;;
68507;SDS011;55510;49.560;19.090;2022-09-13T19:04:00;39.63;;;17.38;;
68507;SDS011;55510;49.560;19.090;2022-09-13T19:09:04;35.63;;;14.43;;
68507;SDS011;55510;49.560;19.090;2022-09-13T19:14:07;32.57;;;14.27;;
68507;SDS011;55510;49.560;19.090;2022-09-13T19:19:09;27.88;;;13.88;;
68507;SDS011;55510;49.560;19.090;2022-09-13T19:24:12;34.00;;;15.80;;
68507;SDS011;55510;49.560;19.090;2022-09-13T19:29:18;36.03;;;16.87;;
68507;SDS011;55510;49.560;19.090;2022-09-13T19:34:23;34.10;;;16.17;;
68507;SDS011;55510;49.560;19.090;2022-09-13T19:39:24;31.10;;;15.77;;
68507;SDS011;55510;49.560;19.090;2022-09-13T19:44:25;23.83;;;12.80;;
68507;SDS011;55510;49.560;19.090;2022-09-13T19:49:28;25.20;;;13.80;;
68507;SDS011;55510;49.560;19.090;2022-09-13T19:54:28;21.73;;;11.80;;
68507;SDS011;55510;49.560;19.090;2022-09-13T19:59:32;17.40;;;9.73;;
68507;SDS011;55510;49.560;19.090;2022-09-13T20:04:33;14.88;;;7.35;;
68507;SDS011;55510;49.560;19.090;2022-09-13T20:09:34;13.13;;;7.40;;
68507;SDS011;55510;49.560;19.090;2022-09-13T20:14:35;13.32;;;7.63;;
68507;SDS011;55510;49.560;19.090;2022-09-13T20:19:38;15.23;;;7.87;;
68507;SDS011;55510;49.560;19.090;2022-09-13T20:24:38;14.20;;;8.07;;
68507;SDS011;55510;49.560;19.090;2022-09-13T20:29:39;14.95;;;7.63;;
68507;SDS011;55510;49.560;19.090;2022-09-13T20:34:40;17.47;;;8.20;;
68507;SDS011;55510;49.560;19.090;2022-09-13T20:39:42;14.27;;;5.72;;
68507;SDS011;55510;49.560;19.090;2022-09-13T20:44:43;12.05;;;6.05;;
68507;SDS011;55510;49.560;19.090;2022-09-13T20:49:45;10.93;;;4.67;;
68507;SDS011;55510;49.560;19.090;2022-09-13T20:54:45;9.82;;;4.65;;
68507;SDS011;55510;49.560;19.090;2022-09-13T20:59:46;10.17;;;4.63;;
68507;SDS011;55510;49.560;19.090;2022-09-13T21:04:47;14.82;;;5.38;;
68507;SDS011;55510;49.560;19.090;2022-09-13T21:09:48;12.30;;;5.30;;
68507;SDS011;55510;49.560;19.090;2022-09-13T21:14:52;12.73;;;6.38;;
68507;SDS011;55510;49.560;19.090;2022-09-13T21:19:53;17.33;;;8.30;;
68507;SDS011;55510;49.560;19.090;2022-09-13T21:24:54;15.85;;;6.70;;
68507;SDS011;55510;49.560;19.090;2022-09-13T21:29:55;12.13;;;5.70;;
68507;SDS011;55510;49.560;19.090;2022-09-13T21:34:55;9.75;;;5.03;;
68507;SDS011;55510;49.560;19.090;2022-09-13T21:39:56;11.70;;;6.27;;
68507;SDS011;55510;49.560;19.090;2022-09-13T21:44:57;9.53;;;5.10;;
68507;SDS011;55510;49.560;19.090;2022-09-13T21:49:57;9.48;;;5.15;;
68507;SDS011;55510;49.560;19.090;2022-09-13T21:54:58;10.00;;;4.70;;
68507;SDS011;55510;49.560;19.090;2022-09-13T21:59:58;8.40;;;4.43;;
68507;SDS011;55510;49.560;19.090;2022-09-13T22:04:59;8.97;;;4.60;;
68507;SDS011;55510;49.560;19.090;2022-09-13T22:10:00;10.48;;;5.07;;
68507;SDS011;55510;49.560;19.090;2022-09-13T22:15:00;8.00;;;4.83;;
68507;SDS011;55510;49.560;19.090;2022-09-13T22:20:01;10.13;;;4.43;;
68507;SDS011;55510;49.560;19.090;2022-09-13T22:25:03;8.83;;;4.20;;
68507;SDS011;55510;49.560;19.090;2022-09-13T22:30:04;9.70;;;4.75;;
68507;SDS011;55510;49.560;19.090;2022-09-13T22:35:05;8.17;;;4.60;;
68507;SDS011;55510;49.560;19.090;2022-09-13T22:40:08;10.13;;;4.63;;
68507;SDS011;55510;49.560;19.090;2022-09-13T22:45:09;10.52;;;5.30;;
68507;SDS011;55510;49.560;19.090;2022-09-13T22:50:10;11.70;;;5.13;;
68507;SDS011;55510;49.560;19.090;2022-09-13T22:55:10;8.67;;;4.53;;
68507;SDS011;55510;49.560;19.090;2022-09-13T23:00:11;8.05;;;4.15;;
68507;SDS011;55510;49.560;19.090;2022-09-13T23:05:12;8.37;;;4.57;;
68507;SDS011;55510;49.560;19.090;2022-09-13T23:10:14;7.47;;;3.75;;
68507;SDS011;55510;49.560;19.090;2022-09-13T23:15:14;7.43;;;3.73;;
68507;SDS011;55510;49.560;19.090;2022-09-13T23:20:16;6.82;;;3.65;;
68507;SDS011;55510;49.560;19.090;2022-09-13T23:25:16;9.73;;;4.50;;
68507;SDS011;55510;49.560;19.090;2022-09-13T23:30:17;13.00;;;5.50;;
68507;SDS011;55510;49.560;19.090;2022-09-13T23:35:18;10.00;;;4.93;;
68507;SDS011;55510;49.560;19.090;2022-09-13T23:40:19;10.75;;;4.60;;
68507;SDS011;55510;49.560;19.090;2022-09-13T23:45:22;8.87;;;3.80;;
68507;SDS011;55510;49.560;19.090;2022-09-13T23:50:22;8.55;;;4.10;;
68507;SDS011;55510;49.560;19.090;2022-09-13T23:55:23;8.23;;;3.73;;
